sensor_id;sensor_type;location;lat;lon;timestamp;pressure;altitude;pressure_sealevel;temperature;humidity
60228;BME280;46091;46.512;6.626;2024-02-16T00:00:06;96916.53;;;12.68;53.57
60228;BME280;46091;46.512;6.626;2024-02-16T00:02:09;96917.78;;;12.72;53.61
60228;BME280;46091;46.512;6.626;2024-02-16T00:04:12;96923.69;;;12.74;53.60
60228;BME280;46091;46.512;6.626;2024-02-16T00:06:16;96919.41;;;12.73;53.60
60228;BME280;46091;46.512;6.626;2024-02-16T00:08:19;96911.44;;;12.73;53.40
60228;BME280;46091;46.512;6.626;2024-02-16T00:10:22;96916.75;;;12.73;53.52
60228;BME280;46091;46.512;6.626;2024-02-16T00:12:25;96924.72;;;12.73;53.49
60228;BME280;46091;46.512;6.626;2024-02-16T00:14:28;96914.91;;;12.74;53.44
60228;BME280;46091;46.512;6.626;2024-02-16T00:16:33;96919.19;;;12.75;53.68
60228;BME280;46091;46.512;6.626;2024-02-16T00:18:35;96920.22;;;12.74;53.65
60228;BME280;46091;46.512;6.626;2024-02-16T00:20:38;96921.84;;;12.75;53.43
60228;BME280;46091;46.512;6.626;2024-02-16T00:22:41;96918.59;;;12.73;53.37
60228;BME280;46091;46.512;6.626;2024-02-16T00:24:44;96923.09;;;12.72;53.41
60228;BME280;46091;46.512;6.626;2024-02-16T00:26:47;96915.53;;;12.69;53.82
60228;BME280;46091;46.512;6.626;2024-02-16T00:28:51;96914.53;;;12.70;53.68
60228;BME280;46091;46.512;6.626;2024-02-16T00:30:54;96930.03;;;12.73;53.90
60228;BME280;46091;46.512;6.626;2024-02-16T00:32:58;96928.19;;;12.74;54.01
60228;BME280;46091;46.512;6.626;2024-02-16T00:35:03;96923.50;;;12.76;53.78
60228;BME280;46091;46.512;6.626;2024-02-16T00:37:06;96924.31;;;12.76;54.03
60228;BME280;46091;46.512;6.626;2024-02-16T00:39:11;96922.47;;;12.77;54.21
60228;BME280;46091;46.512;6.626;2024-02-16T00:41:18;96920.63;;;12.77;54.22
60228;BME280;46091;46.512;6.626;2024-02-16T00:43:20;96917.97;;;12.77;54.03
60228;BME280;46091;46.512;6.626;2024-02-16T00:45:23;96917.97;;;12.77;54.32
60228;BME280;46091;46.512;6.626;2024-02-16T00:47:26;96913.69;;;12.76;54.33
60228;BME280;46091;46.512;6.626;2024-02-16T00:49:31;96925.94;;;12.77;54.15
60228;BME280;46091;46.512;6.626;2024-02-16T00:51:34;96925.94;;;12.77;54.05
60228;BME280;46091;46.512;6.626;2024-02-16T00:53:37;96926.34;;;12.74;54.52
60228;BME280;46091;46.512;6.626;2024-02-16T00:55:40;96926.34;;;12.74;54.54
60228;BME280;46091;46.512;6.626;2024-02-16T00:57:43;96928.78;;;12.76;54.34
60228;BME280;46091;46.512;6.626;2024-02-16T00:59:46;96933.28;;;12.75;54.28
60228;BME280;46091;46.512;6.626;2024-02-16T01:01:49;96922.66;;;12.75;54.53
60228;BME280;46091;46.512;6.626;2024-02-16T01:03:52;96927.16;;;12.75;54.69
60228;BME280;46091;46.512;6.626;2024-02-16T01:05:56;96922.66;;;12.75;54.77
60228;BME280;46091;46.512;6.626;2024-02-16T01:07:59;96924.31;;;12.76;54.65
60228;BME280;46091;46.512;6.626;2024-02-16T01:10:02;96924.31;;;12.76;54.65
60228;BME280;46091;46.512;6.626;2024-02-16T01:12:05;96928.78;;;12.76;54.66
60228;BME280;46091;46.512;6.626;2024-02-16T01:14:08;96932.25;;;12.76;54.58
60228;BME280;46091;46.512;6.626;2024-02-16T01:16:12;96932.28;;;12.70;54.58
60228;BME280;46091;46.512;6.626;2024-02-16T01:18:15;96940.41;;;12.68;54.94
60228;BME280;46091;46.512;6.626;2024-02-16T01:20:18;96949.22;;;12.69;54.82
60228;BME280;46091;46.512;6.626;2024-02-16T01:22:23;96940.63;;;12.67;54.81
60228;BME280;46091;46.512;6.626;2024-02-16T01:24:26;96945.31;;;12.65;55.16
60228;BME280;46091;46.512;6.626;2024-02-16T01:26:29;96933.69;;;12.66;54.94
60228;BME280;46091;46.512;6.626;2024-02-16T01:28:32;96940.63;;;12.67;55.02
60228;BME280;46091;46.512;6.626;2024-02-16T01:30:33;96935.50;;;12.65;55.27
60228;BME280;46091;46.512;6.626;2024-02-16T01:32:36;96935.50;;;12.65;55.40
60228;BME280;46091;46.512;6.626;2024-02-16T01:34:39;96938.16;;;12.65;55.48
60228;BME280;46091;46.512;6.626;2024-02-16T01:36:43;96937.16;;;12.66;55.16
60228;BME280;46091;46.512;6.626;2024-02-16T01:38:47;96932.03;;;12.65;55.37
60228;BME280;46091;46.512;6.626;2024-02-16T01:40:50;96937.56;;;12.63;55.48
60228;BME280;46091;46.512;6.626;2024-02-16T01:42:53;96930.81;;;12.61;55.45
60228;BME280;46091;46.512;6.626;2024-02-16T01:44:56;96933.28;;;12.62;55.57
60228;BME280;46091;46.512;6.626;2024-02-16T01:46:59;96937.75;;;12.62;55.66
60228;BME280;46091;46.512;6.626;2024-02-16T01:49:03;96929.00;;;12.61;55.66
60228;BME280;46091;46.512;6.626;2024-02-16T01:51:07;96923.09;;;12.59;55.56
60228;BME280;46091;46.512;6.626;2024-02-16T01:53:11;96926.34;;;12.61;55.42
60228;BME280;46091;46.512;6.626;2024-02-16T01:55:16;96929.59;;;12.63;55.71
60228;BME280;46091;46.512;6.626;2024-02-16T01:57:18;96931.22;;;12.64;55.64
60228;BME280;46091;46.512;6.626;2024-02-16T01:59:22;96922.66;;;12.62;55.72
60228;BME280;46091;46.512;6.626;2024-02-16T02:01:24;96930.63;;;12.62;55.94
60228;BME280;46091;46.512;6.626;2024-02-16T02:03:27;96937.56;;;12.63;55.90
60228;BME280;46091;46.512;6.626;2024-02-16T02:05:31;96932.88;;;12.65;55.88
60228;BME280;46091;46.512;6.626;2024-02-16T02:07:35;96927.56;;;12.65;56.06
60228;BME280;46091;46.512;6.626;2024-02-16T02:09:38;96930.41;;;12.64;56.08
60228;BME280;46091;46.512;6.626;2024-02-16T02:11:42;96927.97;;;12.62;55.82
60228;BME280;46091;46.512;6.626;2024-02-16T02:13:45;96933.28;;;12.62;56.07
60228;BME280;46091;46.512;6.626;2024-02-16T02:15:48;96926.34;;;12.61;56.26
60228;BME280;46091;46.512;6.626;2024-02-16T02:17:50;96929.00;;;12.61;56.28
60228;BME280;46091;46.512;6.626;2024-02-16T02:19:53;96920.00;;;12.62;56.00
60228;BME280;46091;46.512;6.626;2024-02-16T02:21:56;96922.88;;;12.61;56.27
60228;BME280;46091;46.512;6.626;2024-02-16T02:24:00;96929.59;;;12.63;56.27
60228;BME280;46091;46.512;6.626;2024-02-16T02:26:03;96924.28;;;12.63;56.15
60228;BME280;46091;46.512;6.626;2024-02-16T02:28:07;96922.66;;;12.62;56.19
60228;BME280;46091;46.512;6.626;2024-02-16T02:30:10;96925.13;;;12.64;56.46
60228;BME280;46091;46.512;6.626;2024-02-16T02:32:13;96924.28;;;12.63;56.52
60228;BME280;46091;46.512;6.626;2024-02-16T02:34:15;96925.31;;;12.62;56.50
60228;BME280;46091;46.512;6.626;2024-02-16T02:36:18;96920.22;;;12.61;56.48
60228;BME280;46091;46.512;6.626;2024-02-16T02:38:21;96923.91;;;12.60;56.61
60228;BME280;46091;46.512;6.626;2024-02-16T02:40:26;96926.75;;;12.58;56.27
60228;BME280;46091;46.512;6.626;2024-02-16T02:42:28;96924.28;;;12.57;56.31
60228;BME280;46091;46.512;6.626;2024-02-16T02:44:30;96926.13;;;12.56;56.63
60228;BME280;46091;46.512;6.626;2024-02-16T02:46:34;96927.94;;;12.56;56.63
60228;BME280;46091;46.512;6.626;2024-02-16T02:48:36;96929.56;;;12.57;56.73
60228;BME280;46091;46.512;6.626;2024-02-16T02:50:39;96937.75;;;12.55;56.54
60228;BME280;46091;46.512;6.626;2024-02-16T02:52:42;96943.84;;;12.56;56.72
60228;BME280;46091;46.512;6.626;2024-02-16T02:54:46;96934.06;;;12.56;56.60
60228;BME280;46091;46.512;6.626;2024-02-16T02:56:51;96932.06;;;12.58;56.69
60228;BME280;46091;46.512;6.626;2024-02-16T02:58:53;96928.38;;;12.59;56.49
60228;BME280;46091;46.512;6.626;2024-02-16T03:00:55;96935.31;;;12.60;56.69
60228;BME280;46091;46.512;6.626;2024-02-16T03:02:59;96930.00;;;12.60;56.68
60228;BME280;46091;46.512;6.626;2024-02-16T03:05:03;96937.97;;;12.60;56.56
60228;BME280;46091;46.512;6.626;2024-02-16T03:07:05;96928.38;;;12.59;56.58
60228;BME280;46091;46.512;6.626;2024-02-16T03:09:08;96933.69;;;12.59;56.84
60228;BME280;46091;46.512;6.626;2024-02-16T03:11:13;96931.66;;;12.61;56.57
60228;BME280;46091;46.512;6.626;2024-02-16T03:13:17;96922.66;;;12.62;56.62
60228;BME280;46091;46.512;6.626;2024-02-16T03:15:20;96922.66;;;12.62;56.72
60228;BME280;46091;46.512;6.626;2024-02-16T03:17:23;96919.00;;;12.63;56.51
60228;BME280;46091;46.512;6.626;2024-02-16T03:19:25;96920.41;;;12.66;56.77
60228;BME280;46091;46.512;6.626;2024-02-16T03:21:28;96921.84;;;12.68;56.72
60228;BME280;46091;46.512;6.626;2024-02-16T03:23:31;96921.84;;;12.68;56.43
60228;BME280;46091;46.512;6.626;2024-02-16T03:25:34;96916.34;;;12.70;56.63
60228;BME280;46091;46.512;6.626;2024-02-16T03:27:37;96912.69;;;12.71;56.53
60228;BME280;46091;46.512;6.626;2024-02-16T03:29:41;96915.13;;;12.72;56.48
60228;BME280;46091;46.512;6.626;2024-02-16T03:31:44;96923.09;;;12.72;56.75
60228;BME280;46091;46.512;6.626;2024-02-16T03:33:48;96921.84;;;12.68;56.70
60228;BME280;46091;46.512;6.626;2024-02-16T03:35:51;96916.53;;;12.68;56.59
60228;BME280;46091;46.512;6.626;2024-02-16T03:37:54;96926.16;;;12.69;56.34
60228;BME280;46091;46.512;6.626;2024-02-16T03:39:57;96924.50;;;12.68;56.42
60228;BME280;46091;46.512;6.626;2024-02-16T03:42:00;96936.13;;;12.67;56.65
60228;BME280;46091;46.512;6.626;2024-02-16T03:44:03;96930.22;;;12.65;56.61
60228;BME280;46091;46.512;6.626;2024-02-16T03:46:07;96935.50;;;12.65;56.71
60228;BME280;46091;46.512;6.626;2024-02-16T03:48:10;96943.47;;;12.65;56.54
60228;BME280;46091;46.512;6.626;2024-02-16T03:50:14;96940.22;;;12.63;56.61
60228;BME280;46091;46.512;6.626;2024-02-16T03:52:17;96938.56;;;12.62;56.56
60228;BME280;46091;46.512;6.626;2024-02-16T03:54:20;96936.13;;;12.61;56.59
60228;BME280;46091;46.512;6.626;2024-02-16T03:56:22;96934.72;;;12.58;56.33
60228;BME280;46091;46.512;6.626;2024-02-16T03:58:25;96939.00;;;12.59;56.41
60228;BME280;46091;46.512;6.626;2024-02-16T04:00:28;96942.66;;;12.58;56.79
60228;BME280;46091;46.512;6.626;2024-02-16T04:02:32;96936.53;;;12.58;56.73
60228;BME280;46091;46.512;6.626;2024-02-16T04:04:35;96931.41;;;12.56;56.60
60228;BME280;46091;46.512;6.626;2024-02-16T04:06:39;96935.09;;;12.55;56.45
60228;BME280;46091;46.512;6.626;2024-02-16T04:08:42;96932.44;;;12.55;56.69
60228;BME280;46091;46.512;6.626;2024-02-16T04:10:45;96934.06;;;12.56;56.44
60228;BME280;46091;46.512;6.626;2024-02-16T04:13:08;96929.78;;;12.55;56.67
60228;BME280;46091;46.512;6.626;2024-02-16T04:15:11;96940.19;;;12.57;56.41
60228;BME280;46091;46.512;6.626;2024-02-16T04:17:14;96937.75;;;12.55;56.34
60228;BME280;46091;46.512;6.626;2024-02-16T04:19:18;96946.72;;;12.54;56.31
60228;BME280;46091;46.512;6.626;2024-02-16T04:21:22;96943.03;;;12.55;56.30
60228;BME280;46091;46.512;6.626;2024-02-16T04:23:25;96948.56;;;12.53;56.53
60228;BME280;46091;46.512;6.626;2024-02-16T04:25:27;96949.16;;;12.56;56.43
60228;BME280;46091;46.512;6.626;2024-02-16T04:27:30;96946.50;;;12.56;56.27
60228;BME280;46091;46.512;6.626;2024-02-16T04:29:33;96943.03;;;12.55;56.42
60228;BME280;46091;46.512;6.626;2024-02-16T04:31:38;96953.28;;;12.58;56.50
60228;BME280;46091;46.512;6.626;2024-02-16T04:33:41;96952.25;;;12.59;56.41
60228;BME280;46091;46.512;6.626;2024-02-16T04:35:46;96953.88;;;12.60;56.30
60228;BME280;46091;46.512;6.626;2024-02-16T04:37:52;96949.41;;;12.61;56.48
60228;BME280;46091;46.512;6.626;2024-02-16T04:39:55;96943.06;;;12.62;56.46
60228;BME280;46091;46.512;6.626;2024-02-16T04:41:57;96948.16;;;12.63;56.52
60228;BME280;46091;46.512;6.626;2024-02-16T04:43:59;96956.72;;;12.65;56.12
60228;BME280;46091;46.512;6.626;2024-02-16T04:46:03;96949.19;;;12.62;56.44
60228;BME280;46091;46.512;6.626;2024-02-16T04:48:07;96951.22;;;12.60;56.13
60228;BME280;46091;46.512;6.626;2024-02-16T04:50:10;96949.19;;;12.62;56.27
60228;BME280;46091;46.512;6.626;2024-02-16T04:52:15;96946.53;;;12.62;56.04
60228;BME280;46091;46.512;6.626;2024-02-16T04:54:18;96946.53;;;12.62;56.00
60228;BME280;46091;46.512;6.626;2024-02-16T04:56:21;96948.56;;;12.60;56.15
60228;BME280;46091;46.512;6.626;2024-02-16T04:58:24;96947.56;;;12.61;56.06
60228;BME280;46091;46.512;6.626;2024-02-16T05:00:27;96947.75;;;12.60;56.19
60228;BME280;46091;46.512;6.626;2024-02-16T05:02:30;96946.94;;;12.59;55.82
60228;BME280;46091;46.512;6.626;2024-02-16T05:04:32;96939.00;;;12.59;55.93
60228;BME280;46091;46.512;6.626;2024-02-16T05:06:38;96944.28;;;12.59;55.84
60228;BME280;46091;46.512;6.626;2024-02-16T05:08:44;96946.94;;;12.59;56.08
60228;BME280;46091;46.512;6.626;2024-02-16T05:10:47;96948.78;;;12.59;55.99
60228;BME280;46091;46.512;6.626;2024-02-16T05:12:50;96944.69;;;12.56;55.88
60228;BME280;46091;46.512;6.626;2024-02-16T05:14:53;96949.16;;;12.56;55.78
60228;BME280;46091;46.512;6.626;2024-02-16T05:16:56;96946.72;;;12.54;55.80
60228;BME280;46091;46.512;6.626;2024-02-16T05:19:01;96954.88;;;12.52;55.84
60228;BME280;46091;46.512;6.626;2024-02-16T05:21:04;96957.53;;;12.52;55.72
60228;BME280;46091;46.512;6.626;2024-02-16T05:23:07;96957.94;;;12.49;55.60
60228;BME280;46091;46.512;6.626;2024-02-16T05:25:12;96955.50;;;12.48;55.72
60228;BME280;46091;46.512;6.626;2024-02-16T05:27:15;96964.06;;;12.50;55.73
60228;BME280;46091;46.512;6.626;2024-02-16T05:29:18;96967.53;;;12.50;55.94
60228;BME280;46091;46.512;6.626;2024-02-16T05:31:20;96962.44;;;12.49;55.77
60228;BME280;46091;46.512;6.626;2024-02-16T05:33:23;96960.59;;;12.49;55.75
60228;BME280;46091;46.512;6.626;2024-02-16T05:35:26;96961.41;;;12.50;55.61
60228;BME280;46091;46.512;6.626;2024-02-16T05:37:30;96960.59;;;12.49;55.96
60228;BME280;46091;46.512;6.626;2024-02-16T05:39:36;96956.09;;;12.50;55.74
60228;BME280;46091;46.512;6.626;2024-02-16T05:41:56;96972.84;;;12.50;56.01
60228;BME280;46091;46.512;6.626;2024-02-16T05:43:59;96965.91;;;12.49;55.86
60228;BME280;46091;46.512;6.626;2024-02-16T05:46:02;96957.13;;;12.49;55.77
60228;BME280;46091;46.512;6.626;2024-02-16T05:48:08;96961.41;;;12.50;55.98
60228;BME280;46091;46.512;6.626;2024-02-16T05:50:12;96960.59;;;12.49;55.90
60228;BME280;46091;46.512;6.626;2024-02-16T05:52:14;96962.44;;;12.49;56.14
60228;BME280;46091;46.512;6.626;2024-02-16T05:54:20;96963.25;;;12.49;56.13
60228;BME280;46091;46.512;6.626;2024-02-16T05:56:23;96957.75;;;12.51;56.19
60228;BME280;46091;46.512;6.626;2024-02-16T05:58:28;96959.56;;;12.50;56.29
60228;BME280;46091;46.512;6.626;2024-02-16T06:00:33;96961.81;;;12.53;56.06
60228;BME280;46091;46.512;6.626;2024-02-16T06:02:36;96956.31;;;12.55;56.19
60228;BME280;46091;46.512;6.626;2024-02-16T06:04:39;96958.56;;;12.58;56.12
60228;BME280;46091;46.512;6.626;2024-02-16T06:06:42;96962.84;;;12.59;56.39
60228;BME280;46091;46.512;6.626;2024-02-16T06:08:44;96957.34;;;12.61;56.39
60228;BME280;46091;46.512;6.626;2024-02-16T06:10:47;96958.16;;;12.61;56.28
60228;BME280;46091;46.512;6.626;2024-02-16T06:12:53;96958.16;;;12.61;56.20
60228;BME280;46091;46.512;6.626;2024-02-16T06:14:57;96968.78;;;12.61;56.47
60228;BME280;46091;46.512;6.626;2024-02-16T06:17:02;96970.41;;;12.62;56.33
60228;BME280;46091;46.512;6.626;2024-02-16T06:19:04;96972.03;;;12.63;56.51
60228;BME280;46091;46.512;6.626;2024-02-16T06:21:09;96975.72;;;12.62;56.48
60228;BME280;46091;46.512;6.626;2024-02-16T06:23:12;96969.38;;;12.63;56.41
60228;BME280;46091;46.512;6.626;2024-02-16T06:25:18;96972.84;;;12.64;56.51
60228;BME280;46091;46.512;6.626;2024-02-16T06:27:21;96977.34;;;12.63;56.53
60228;BME280;46091;46.512;6.626;2024-02-16T06:29:25;96971.22;;;12.63;56.72
60228;BME280;46091;46.512;6.626;2024-02-16T06:31:30;96983.47;;;12.64;56.91
60228;BME280;46091;46.512;6.626;2024-02-16T06:33:32;96982.66;;;12.63;56.65
60228;BME280;46091;46.512;6.626;2024-02-16T06:35:36;96986.31;;;12.62;56.80
60228;BME280;46091;46.512;6.626;2024-02-16T06:37:39;96980.41;;;12.60;56.85
60228;BME280;46091;46.512;6.626;2024-02-16T06:39:41;96986.72;;;12.59;56.72
60228;BME280;46091;46.512;6.626;2024-02-16T06:41:45;96988.34;;;12.60;56.82
60228;BME280;46091;46.512;6.626;2024-02-16T06:43:49;96993.66;;;12.60;57.05
60228;BME280;46091;46.512;6.626;2024-02-16T06:45:52;96992.03;;;12.59;56.70
60228;BME280;46091;46.512;6.626;2024-02-16T06:47:58;96995.06;;;12.56;57.01
60228;BME280;46091;46.512;6.626;2024-02-16T06:50:01;96997.91;;;12.54;56.84
60228;BME280;46091;46.512;6.626;2024-02-16T06:52:05;97001.59;;;12.53;56.88
60228;BME280;46091;46.512;6.626;2024-02-16T06:54:09;96998.13;;;12.53;56.93
60228;BME280;46091;46.512;6.626;2024-02-16T06:56:12;97000.78;;;12.53;56.94
60228;BME280;46091;46.512;6.626;2024-02-16T06:58:15;97007.91;;;12.52;57.10
60228;BME280;46091;46.512;6.626;2024-02-16T07:00:18;97004.66;;;12.50;57.08
60228;BME280;46091;46.512;6.626;2024-02-16T07:02:21;97004.66;;;12.50;57.15
60228;BME280;46091;46.512;6.626;2024-02-16T07:04:26;97004.03;;;12.48;56.90
60228;BME280;46091;46.512;6.626;2024-02-16T07:06:30;97008.53;;;12.48;56.86
60228;BME280;46091;46.512;6.626;2024-02-16T07:08:33;97005.06;;;12.47;56.97
60228;BME280;46091;46.512;6.626;2024-02-16T07:10:36;97013.22;;;12.46;57.14
60228;BME280;46091;46.512;6.626;2024-02-16T07:12:39;97014.03;;;12.46;57.04
60228;BME280;46091;46.512;6.626;2024-02-16T07:14:43;97010.38;;;12.47;56.92
60228;BME280;46091;46.512;6.626;2024-02-16T07:16:48;97006.91;;;12.47;56.91
60228;BME280;46091;46.512;6.626;2024-02-16T07:18:51;97015.66;;;12.47;57.01
60228;BME280;46091;46.512;6.626;2024-02-16T07:20:56;97017.50;;;12.47;57.11
60228;BME280;46091;46.512;6.626;2024-02-16T07:23:00;97020.97;;;12.47;57.02
60228;BME280;46091;46.512;6.626;2024-02-16T07:25:04;97018.31;;;12.47;57.34
60228;BME280;46091;46.512;6.626;2024-02-16T07:27:07;97022.41;;;12.50;57.09
60228;BME280;46091;46.512;6.626;2024-02-16T07:29:10;97020.75;;;12.49;57.37
60228;BME280;46091;46.512;6.626;2024-02-16T07:31:15;97023.41;;;12.49;57.38
60228;BME280;46091;46.512;6.626;2024-02-16T07:33:17;97027.09;;;12.48;57.09
60228;BME280;46091;46.512;6.626;2024-02-16T07:35:20;97029.53;;;12.49;57.33
60228;BME280;46091;46.512;6.626;2024-02-16T07:37:27;97028.72;;;12.49;57.26
60228;BME280;46091;46.512;6.626;2024-02-16T08:50:19;97095.47;;;11.13;62.53
60228;BME280;46091;46.512;6.626;2024-02-16T08:52:22;97100.59;;;11.42;62.14
60228;BME280;46091;46.512;6.626;2024-02-16T08:54:25;97104.22;;;11.62;61.54
60228;BME280;46091;46.512;6.626;2024-02-16T08:56:28;97106.63;;;11.79;61.60
60228;BME280;46091;46.512;6.626;2024-02-16T08:58:31;97107.97;;;11.96;61.02
60228;BME280;46091;46.512;6.626;2024-02-16T09:00:34;97106.41;;;12.08;60.78
60228;BME280;46091;46.512;6.626;2024-02-16T09:02:37;97104.22;;;12.18;60.73
60228;BME280;46091;46.512;6.626;2024-02-16T09:04:40;97109.19;;;12.28;60.38
60228;BME280;46091;46.512;6.626;2024-02-16T09:06:45;97108.22;;;12.36;60.39
60228;BME280;46091;46.512;6.626;2024-02-16T09:08:48;97107.63;;;12.40;60.42
60228;BME280;46091;46.512;6.626;2024-02-16T09:10:51;97105.00;;;12.47;60.04
60228;BME280;46091;46.512;6.626;2024-02-16T09:12:54;97106.84;;;12.53;60.20
60228;BME280;46091;46.512;6.626;2024-02-16T09:14:57;97117.69;;;12.58;59.95
60228;BME280;46091;46.512;6.626;2024-02-16T09:17:00;97113.22;;;12.59;59.66
60228;BME280;46091;46.512;6.626;2024-02-16T09:19:03;97122.59;;;12.61;59.91
60228;BME280;46091;46.512;6.626;2024-02-16T09:21:06;97115.25;;;12.63;59.84
60228;BME280;46091;46.512;6.626;2024-02-16T09:23:11;97114.84;;;12.66;59.75
60228;BME280;46091;46.512;6.626;2024-02-16T09:25:14;97117.53;;;12.73;59.61
60228;BME280;46091;46.512;6.626;2024-02-16T09:27:17;97122.66;;;12.74;59.54
60228;BME280;46091;46.512;6.626;2024-02-16T09:29:21;97125.91;;;12.76;59.70
60228;BME280;46091;46.512;6.626;2024-02-16T09:31:24;97122.03;;;12.79;59.53
60228;BME280;46091;46.512;6.626;2024-02-16T09:33:27;97128.00;;;12.81;59.45
60228;BME280;46091;46.512;6.626;2024-02-16T09:35:31;97125.94;;;12.83;59.23
60228;BME280;46091;46.512;6.626;2024-02-16T09:37:34;97132.06;;;12.83;59.11
60228;BME280;46091;46.512;6.626;2024-02-16T09:39:40;97132.69;;;12.86;59.16
60228;BME280;46091;46.512;6.626;2024-02-16T09:41:43;97128.59;;;12.90;59.27
60228;BME280;46091;46.512;6.626;2024-02-16T09:43:49;97136.19;;;12.93;59.00
60228;BME280;46091;46.512;6.626;2024-02-16T09:45:55;97128.84;;;12.95;59.01
60228;BME280;46091;46.512;6.626;2024-02-16T09:47:58;97139.25;;;12.96;58.70
60228;BME280;46091;46.512;6.626;2024-02-16T09:50:09;97139.25;;;12.96;59.02
60228;BME280;46091;46.512;6.626;2024-02-16T09:52:13;97140.69;;;12.99;58.67
60228;BME280;46091;46.512;6.626;2024-02-16T09:54:16;97143.94;;;13.01;58.91
60228;BME280;46091;46.512;6.626;2024-02-16T09:56:20;97145.59;;;13.02;58.58
60228;BME280;46091;46.512;6.626;2024-02-16T09:58:23;97140.28;;;13.02;58.51
60228;BME280;46091;46.512;6.626;2024-02-16T10:00:25;97149.09;;;13.02;58.33
60228;BME280;46091;46.512;6.626;2024-02-16T10:02:39;97153.56;;;13.02;58.51
60228;BME280;46091;46.512;6.626;2024-02-16T10:04:43;97156.84;;;13.04;58.67
60228;BME280;46091;46.512;6.626;2024-02-16T10:06:46;97156.84;;;13.04;58.49
60228;BME280;46091;46.512;6.626;2024-02-16T10:08:51;97154.81;;;13.06;58.23
60228;BME280;46091;46.512;6.626;2024-02-16T10:11:00;97168.69;;;13.08;58.39
60228;BME280;46091;46.512;6.626;2024-02-16T10:13:05;97165.00;;;13.09;58.03
60228;BME280;46091;46.512;6.626;2024-02-16T10:15:09;97165.63;;;13.11;57.96
60228;BME280;46091;46.512;6.626;2024-02-16T10:17:16;97162.78;;;13.12;58.02
60228;BME280;46091;46.512;6.626;2024-02-16T10:19:19;97168.28;;;13.11;57.58
60228;BME280;46091;46.512;6.626;2024-02-16T10:21:25;97166.03;;;13.08;57.57
60228;BME280;46091;46.512;6.626;2024-02-16T10:23:28;97171.34;;;13.08;57.13
60228;BME280;46091;46.512;6.626;2024-02-16T10:25:44;97166.25;;;13.06;56.57
60228;BME280;46091;46.512;6.626;2024-02-16T10:27:47;97176.25;;;13.04;56.39
60228;BME280;46091;46.512;6.626;2024-02-16T10:29:53;97175.84;;;13.07;56.86
60228;BME280;46091;46.512;6.626;2024-02-16T10:31:57;97166.66;;;13.10;57.07
60228;BME280;46091;46.512;6.626;2024-02-16T10:33:59;97172.00;;;13.17;57.14
60228;BME280;46091;46.512;6.626;2024-02-16T10:36:04;97169.78;;;13.20;57.00
60228;BME280;46091;46.512;6.626;2024-02-16T10:38:10;97174.69;;;13.23;56.92
60228;BME280;46091;46.512;6.626;2024-02-16T10:40:14;97176.94;;;13.26;56.99
60228;BME280;46091;46.512;6.626;2024-02-16T10:42:20;97180.44;;;13.27;56.91
60228;BME280;46091;46.512;6.626;2024-02-16T10:44:26;97177.56;;;13.28;57.04
60228;BME280;46091;46.512;6.626;2024-02-16T10:46:32;97177.34;;;13.30;56.93
60228;BME280;46091;46.512;6.626;2024-02-16T10:48:35;97177.78;;;13.33;56.87
60228;BME280;46091;46.512;6.626;2024-02-16T10:50:38;97178.59;;;13.34;56.89
60228;BME280;46091;46.512;6.626;2024-02-16T10:52:43;97183.69;;;13.35;56.82
60228;BME280;46091;46.512;6.626;2024-02-16T10:54:49;97192.31;;;13.37;56.69
60228;BME280;46091;46.512;6.626;2024-02-16T10:56:53;97191.28;;;13.38;56.61
60228;BME280;46091;46.512;6.626;2024-02-16T10:59:00;97200.88;;;13.39;56.51
60228;BME280;46091;46.512;6.626;2024-02-16T11:01:08;97188.63;;;13.38;56.42
60228;BME280;46091;46.512;6.626;2024-02-16T11:03:16;97181.47;;;13.39;56.36
60228;BME280;46091;46.512;6.626;2024-02-16T11:05:19;97186.38;;;13.42;56.23
60228;BME280;46091;46.512;6.626;2024-02-16T11:07:24;97183.94;;;13.40;56.40
60228;BME280;46091;46.512;6.626;2024-02-16T11:09:28;97183.72;;;13.42;56.48
60228;BME280;46091;46.512;6.626;2024-02-16T11:11:32;97185.16;;;13.45;56.46
60228;BME280;46091;46.512;6.626;2024-02-16T11:13:36;97185.75;;;13.47;56.06
60228;BME280;46091;46.512;6.626;2024-02-16T11:15:39;97177.63;;;13.48;55.67
60228;BME280;46091;46.512;6.626;2024-02-16T11:17:42;97185.38;;;13.50;55.95
60228;BME280;46091;46.512;6.626;2024-02-16T11:19:47;97181.50;;;13.52;55.89
60228;BME280;46091;46.512;6.626;2024-02-16T11:22:03;97182.09;;;13.54;55.98
60228;BME280;46091;46.512;6.626;2024-02-16T11:24:09;97180.06;;;13.56;55.87
60228;BME280;46091;46.512;6.626;2024-02-16T11:26:13;97179.84;;;13.58;55.99
60228;BME280;46091;46.512;6.626;2024-02-16T11:28:16;97180.50;;;13.60;55.74
60228;BME280;46091;46.512;6.626;2024-02-16T11:30:19;97182.13;;;13.61;56.02
60228;BME280;46091;46.512;6.626;2024-02-16T11:32:22;97184.56;;;13.62;55.97
60228;BME280;46091;46.512;6.626;2024-02-16T11:34:26;97186.22;;;13.63;55.91
60228;BME280;46091;46.512;6.626;2024-02-16T11:36:31;97186.00;;;13.65;55.73
60228;BME280;46091;46.512;6.626;2024-02-16T11:38:35;97175.59;;;13.63;55.87
60228;BME280;46091;46.512;6.626;2024-02-16T11:40:37;97183.34;;;13.65;55.68
60228;BME280;46091;46.512;6.626;2024-02-16T11:42:40;97181.28;;;13.67;55.51
60228;BME280;46091;46.512;6.626;2024-02-16T11:44:51;97180.28;;;13.68;55.79
60228;BME280;46091;46.512;6.626;2024-02-16T11:46:54;97182.72;;;13.69;55.65
60228;BME280;46091;46.512;6.626;2024-02-16T11:49:04;97173.75;;;13.71;55.77
60228;BME280;46091;46.512;6.626;2024-02-16T11:51:08;97162.94;;;13.72;55.52
60228;BME280;46091;46.512;6.626;2024-02-16T11:53:16;97164.56;;;13.73;55.67
60228;BME280;46091;46.512;6.626;2024-02-16T11:55:20;97164.56;;;13.73;55.30
60228;BME280;46091;46.512;6.626;2024-02-16T11:57:23;97168.25;;;13.72;55.57
60228;BME280;46091;46.512;6.626;2024-02-16T11:59:26;97166.78;;;13.76;55.21
60228;BME280;46091;46.512;6.626;2024-02-16T12:01:29;97165.97;;;13.76;55.32
60228;BME280;46091;46.512;6.626;2024-02-16T12:03:32;97167.81;;;13.75;55.31
60228;BME280;46091;46.512;6.626;2024-02-16T12:05:35;97159.44;;;13.78;55.17